sensor_id;sensor_type;location;lat;lon;timestamp;temperature;humidity
14527;DHT22;7350;51.208;4.238;2023-02-28T00:00:33;16.00;99.90
14527;DHT22;7350;51.208;4.238;2023-02-28T00:03:01;16.00;99.90
14527;DHT22;7350;51.208;4.238;2023-02-28T00:05:28;16.00;99.90
14527;DHT22;7350;51.208;4.238;2023-02-28T00:07:55;16.00;99.90
14527;DHT22;7350;51.208;4.238;2023-02-28T00:10:24;15.90;99.90
14527;DHT22;7350;51.208;4.238;2023-02-28T00:12:53;15.90;99.90
14527;DHT22;7350;51.208;4.238;2023-02-28T00:15:23;15.90;99.90
14527;DHT22;7350;51.208;4.238;2023-02-28T00:17:51;15.90;99.90
14527;DHT22;7350;51.208;4.238;2023-02-28T00:20:18;15.90;99.90
14527;DHT22;7350;51.208;4.238;2023-02-28T00:22:47;15.90;99.90
14527;DHT22;7350;51.208;4.238;2023-02-28T00:25:17;15.90;99.90
14527;DHT22;7350;51.208;4.238;2023-02-28T00:27:44;15.90;99.90
14527;DHT22;7350;51.208;4.238;2023-02-28T00:30:13;15.90;99.90
14527;DHT22;7350;51.208;4.238;2023-02-28T00:32:44;15.80;99.90
14527;DHT22;7350;51.208;4.238;2023-02-28T00:35:11;15.80;99.90
14527;DHT22;7350;51.208;4.238;2023-02-28T00:37:39;15.80;99.90
14527;DHT22;7350;51.208;4.238;2023-02-28T00:40:07;15.80;99.90
14527;DHT22;7350;51.208;4.238;2023-02-28T00:42:35;15.80;99.90
14527;DHT22;7350;51.208;4.238;2023-02-28T00:45:03;15.80;99.90
14527;DHT22;7350;51.208;4.238;2023-02-28T00:47:31;15.80;99.90
14527;DHT22;7350;51.208;4.238;2023-02-28T00:49:59;15.80;99.90
14527;DHT22;7350;51.208;4.238;2023-02-28T00:52:26;15.80;99.90
14527;DHT22;7350;51.208;4.238;2023-02-28T00:54:53;15.80;99.90
14527;DHT22;7350;51.208;4.238;2023-02-28T00:57:20;15.70;99.90
14527;DHT22;7350;51.208;4.238;2023-02-28T00:59:47;15.70;99.90
14527;DHT22;7350;51.208;4.238;2023-02-28T01:02:14;15.70;99.90
14527;DHT22;7350;51.208;4.238;2023-02-28T01:04:41;15.70;99.90
14527;DHT22;7350;51.208;4.238;2023-02-28T01:07:10;15.70;99.90
14527;DHT22;7350;51.208;4.238;2023-02-28T01:09:37;15.70;99.90
14527;DHT22;7350;51.208;4.238;2023-02-28T01:12:04;15.70;99.90
14527;DHT22;7350;51.208;4.238;2023-02-28T01:14:31;15.70;99.90
14527;DHT22;7350;51.208;4.238;2023-02-28T01:16:58;15.70;99.90
14527;DHT22;7350;51.208;4.238;2023-02-28T01:19:25;15.60;99.90
14527;DHT22;7350;51.208;4.238;2023-02-28T01:21:52;15.60;99.90
14527;DHT22;7350;51.208;4.238;2023-02-28T01:24:20;15.60;99.90
14527;DHT22;7350;51.208;4.238;2023-02-28T01:26:47;15.60;99.90
14527;DHT22;7350;51.208;4.238;2023-02-28T01:29:15;15.60;99.90
14527;DHT22;7350;51.208;4.238;2023-02-28T01:31:42;15.60;99.90
14527;DHT22;7350;51.208;4.238;2023-02-28T01:34:09;15.60;99.90
14527;DHT22;7350;51.208;4.238;2023-02-28T01:36:36;15.60;99.90
14527;DHT22;7350;51.208;4.238;2023-02-28T01:39:03;15.60;99.90
14527;DHT22;7350;51.208;4.238;2023-02-28T01:41:34;15.60;99.90
14527;DHT22;7350;51.208;4.238;2023-02-28T01:44:03;15.50;99.90
14527;DHT22;7350;51.208;4.238;2023-02-28T01:46:31;15.60;99.90
14527;DHT22;7350;51.208;4.238;2023-02-28T01:49:04;15.60;99.90
14527;DHT22;7350;51.208;4.238;2023-02-28T01:51:35;15.50;99.90
14527;DHT22;7350;51.208;4.238;2023-02-28T01:54:05;15.50;99.90
14527;DHT22;7350;51.208;4.238;2023-02-28T01:56:44;15.50;99.90
14527;DHT22;7350;51.208;4.238;2023-02-28T01:59:16;15.50;99.90
14527;DHT22;7350;51.208;4.238;2023-02-28T02:01:46;15.50;99.90
14527;DHT22;7350;51.208;4.238;2023-02-28T02:04:13;15.50;99.90
14527;DHT22;7350;51.208;4.238;2023-02-28T02:06:43;15.50;99.90
14527;DHT22;7350;51.208;4.238;2023-02-28T02:09:11;15.50;99.90
14527;DHT22;7350;51.208;4.238;2023-02-28T02:11:41;15.50;99.90
14527;DHT22;7350;51.208;4.238;2023-02-28T02:17:20;15.40;99.90
14527;DHT22;7350;51.208;4.238;2023-02-28T02:20:15;15.40;99.90
14527;DHT22;7350;51.208;4.238;2023-02-28T02:23:18;15.40;99.90
14527;DHT22;7350;51.208;4.238;2023-02-28T02:25:53;15.40;99.90
14527;DHT22;7350;51.208;4.238;2023-02-28T02:28:56;15.40;99.90
14527;DHT22;7350;51.208;4.238;2023-02-28T02:31:48;15.40;99.90
14527;DHT22;7350;51.208;4.238;2023-02-28T02:34:37;15.40;99.90
14527;DHT22;7350;51.208;4.238;2023-02-28T02:37:15;15.40;99.90
14527;DHT22;7350;51.208;4.238;2023-02-28T02:39:48;15.30;99.90
14527;DHT22;7350;51.208;4.238;2023-02-28T02:42:20;15.30;99.90
14527;DHT22;7350;51.208;4.238;2023-02-28T02:44:52;15.30;99.90
14527;DHT22;7350;51.208;4.238;2023-02-28T02:47:23;15.30;99.90
14527;DHT22;7350;51.208;4.238;2023-02-28T02:49:55;15.30;99.90
14527;DHT22;7350;51.208;4.238;2023-02-28T02:52:28;15.30;99.90
14527;DHT22;7350;51.208;4.238;2023-02-28T02:54:57;15.20;99.90
14527;DHT22;7350;51.208;4.238;2023-02-28T02:57:29;15.20;99.90
14527;DHT22;7350;51.208;4.238;2023-02-28T03:00:00;15.20;99.90
14527;DHT22;7350;51.208;4.238;2023-02-28T03:02:30;15.30;99.90
14527;DHT22;7350;51.208;4.238;2023-02-28T03:05:04;15.30;99.90
14527;DHT22;7350;51.208;4.238;2023-02-28T03:07:32;15.20;99.90
14527;DHT22;7350;51.208;4.238;2023-02-28T03:09:59;15.20;99.90
14527;DHT22;7350;51.208;4.238;2023-02-28T03:12:33;15.20;99.90
14527;DHT22;7350;51.208;4.238;2023-02-28T03:15:13;15.20;99.90
14527;DHT22;7350;51.208;4.238;2023-02-28T03:17:58;15.20;99.90
14527;DHT22;7350;51.208;4.238;2023-02-28T03:20:35;15.20;99.90
14527;DHT22;7350;51.208;4.238;2023-02-28T03:23:13;15.20;99.90
14527;DHT22;7350;51.208;4.238;2023-02-28T03:25:50;15.20;99.90
14527;DHT22;7350;51.208;4.238;2023-02-28T03:28:24;15.20;99.90
14527;DHT22;7350;51.208;4.238;2023-02-28T03:30:56;15.20;99.90
14527;DHT22;7350;51.208;4.238;2023-02-28T03:33:29;15.10;99.90
14527;DHT22;7350;51.208;4.238;2023-02-28T03:36:01;15.10;99.90
14527;DHT22;7350;51.208;4.238;2023-02-28T03:38:33;15.20;99.90
14527;DHT22;7350;51.208;4.238;2023-02-28T03:41:05;15.10;99.90
14527;DHT22;7350;51.208;4.238;2023-02-28T03:43:35;15.20;99.90
14527;DHT22;7350;51.208;4.238;2023-02-28T03:46:09;15.20;99.90
14527;DHT22;7350;51.208;4.238;2023-02-28T03:48:39;15.10;99.90
14527;DHT22;7350;51.208;4.238;2023-02-28T03:51:12;15.10;99.90
14527;DHT22;7350;51.208;4.238;2023-02-28T03:53:45;15.10;99.90
14527;DHT22;7350;51.208;4.238;2023-02-28T03:56:16;15.10;99.90
14527;DHT22;7350;51.208;4.238;2023-02-28T03:58:47;15.10;99.90
14527;DHT22;7350;51.208;4.238;2023-02-28T04:01:21;15.10;99.90
14527;DHT22;7350;51.208;4.238;2023-02-28T04:03:50;15.10;99.90
14527;DHT22;7350;51.208;4.238;2023-02-28T04:06:20;15.00;99.90
14527;DHT22;7350;51.208;4.238;2023-02-28T04:08:49;15.10;99.90
14527;DHT22;7350;51.208;4.238;2023-02-28T04:11:21;15.10;99.90
14527;DHT22;7350;51.208;4.238;2023-02-28T04:13:49;15.00;99.90
14527;DHT22;7350;51.208;4.238;2023-02-28T04:16:16;15.00;99.90
14527;DHT22;7350;51.208;4.238;2023-02-28T04:18:43;15.00;99.90
14527;DHT22;7350;51.208;4.238;2023-02-28T04:21:11;15.00;99.90
14527;DHT22;7350;51.208;4.238;2023-02-28T04:23:39;15.00;99.90
14527;DHT22;7350;51.208;4.238;2023-02-28T04:26:06;15.10;99.90
14527;DHT22;7350;51.208;4.238;2023-02-28T04:28:33;15.00;99.90
14527;DHT22;7350;51.208;4.238;2023-02-28T04:31:03;15.00;99.90
14527;DHT22;7350;51.208;4.238;2023-02-28T04:33:32;15.00;99.90
14527;DHT22;7350;51.208;4.238;2023-02-28T04:36:00;15.00;99.90
14527;DHT22;7350;51.208;4.238;2023-02-28T04:38:28;15.00;99.90
14527;DHT22;7350;51.208;4.238;2023-02-28T04:40:58;15.00;99.90
14527;DHT22;7350;51.208;4.238;2023-02-28T04:43:26;15.00;99.90
14527;DHT22;7350;51.208;4.238;2023-02-28T04:45:53;15.00;99.90
14527;DHT22;7350;51.208;4.238;2023-02-28T04:48:23;15.00;99.90
14527;DHT22;7350;51.208;4.238;2023-02-28T04:50:50;15.00;99.90
14527;DHT22;7350;51.208;4.238;2023-02-28T04:53:17;15.00;99.90
14527;DHT22;7350;51.208;4.238;2023-02-28T04:55:44;15.00;99.90
14527;DHT22;7350;51.208;4.238;2023-02-28T04:58:14;15.00;99.90
14527;DHT22;7350;51.208;4.238;2023-02-28T05:00:41;15.00;99.90
14527;DHT22;7350;51.208;4.238;2023-02-28T05:03:08;15.00;99.90
14527;DHT22;7350;51.208;4.238;2023-02-28T05:05:35;15.10;99.90
14527;DHT22;7350;51.208;4.238;2023-02-28T05:08:02;15.20;99.90
14527;DHT22;7350;51.208;4.238;2023-02-28T05:10:30;15.30;99.90
14527;DHT22;7350;51.208;4.238;2023-02-28T05:12:58;15.40;99.90
14527;DHT22;7350;51.208;4.238;2023-02-28T05:15:26;15.50;99.90
14527;DHT22;7350;51.208;4.238;2023-02-28T05:17:53;15.50;99.90
14527;DHT22;7350;51.208;4.238;2023-02-28T05:20:20;15.60;99.90
14527;DHT22;7350;51.208;4.238;2023-02-28T05:22:47;15.60;99.90
14527;DHT22;7350;51.208;4.238;2023-02-28T05:25:17;15.60;99.90
14527;DHT22;7350;51.208;4.238;2023-02-28T05:27:44;15.60;99.90
14527;DHT22;7350;51.208;4.238;2023-02-28T05:30:12;15.70;99.90
14527;DHT22;7350;51.208;4.238;2023-02-28T05:32:40;15.60;99.90
14527;DHT22;7350;51.208;4.238;2023-02-28T05:35:09;15.70;99.90
14527;DHT22;7350;51.208;4.238;2023-02-28T05:37:36;15.70;99.90
14527;DHT22;7350;51.208;4.238;2023-02-28T05:40:05;15.80;99.90
14527;DHT22;7350;51.208;4.238;2023-02-28T05:42:33;15.80;99.90
14527;DHT22;7350;51.208;4.238;2023-02-28T05:45:00;15.80;99.90
14527;DHT22;7350;51.208;4.238;2023-02-28T05:47:27;15.80;99.90
14527;DHT22;7350;51.208;4.238;2023-02-28T05:49:55;15.90;99.90
14527;DHT22;7350;51.208;4.238;2023-02-28T05:52:22;15.90;99.90
14527;DHT22;7350;51.208;4.238;2023-02-28T05:54:49;15.90;99.90
14527;DHT22;7350;51.208;4.238;2023-02-28T05:57:16;15.90;99.90
14527;DHT22;7350;51.208;4.238;2023-02-28T05:59:43;15.90;99.90
14527;DHT22;7350;51.208;4.238;2023-02-28T06:02:13;15.90;99.90
14527;DHT22;7350;51.208;4.238;2023-02-28T06:04:40;15.90;99.90
14527;DHT22;7350;51.208;4.238;2023-02-28T06:07:09;15.90;99.90
14527;DHT22;7350;51.208;4.238;2023-02-28T06:09:36;15.90;99.90
14527;DHT22;7350;51.208;4.238;2023-02-28T06:12:05;15.90;99.90
14527;DHT22;7350;51.208;4.238;2023-02-28T06:14:35;15.90;99.90
14527;DHT22;7350;51.208;4.238;2023-02-28T06:17:03;16.00;99.90
14527;DHT22;7350;51.208;4.238;2023-02-28T06:19:30;15.90;99.90
14527;DHT22;7350;51.208;4.238;2023-02-28T06:21:57;16.00;99.90
14527;DHT22;7350;51.208;4.238;2023-02-28T06:24:26;16.00;99.90
14527;DHT22;7350;51.208;4.238;2023-02-28T06:26:54;16.00;99.90
14527;DHT22;7350;51.208;4.238;2023-02-28T06:29:21;16.00;99.90
14527;DHT22;7350;51.208;4.238;2023-02-28T06:31:48;16.00;99.90
14527;DHT22;7350;51.208;4.238;2023-02-28T06:34:16;16.00;99.90
14527;DHT22;7350;51.208;4.238;2023-02-28T06:36:43;16.00;99.90
14527;DHT22;7350;51.208;4.238;2023-02-28T06:39:10;16.00;99.90
14527;DHT22;7350;51.208;4.238;2023-02-28T06:41:39;16.00;99.90
14527;DHT22;7350;51.208;4.238;2023-02-28T06:44:10;16.00;99.90
14527;DHT22;7350;51.208;4.238;2023-02-28T06:46:39;16.00;99.90
14527;DHT22;7350;51.208;4.238;2023-02-28T06:49:06;16.00;99.90
14527;DHT22;7350;51.208;4.238;2023-02-28T06:51:35;16.00;99.90
14527;DHT22;7350;51.208;4.238;2023-02-28T06:54:03;16.00;99.90
14527;DHT22;7350;51.208;4.238;2023-02-28T06:56:30;16.10;99.90
14527;DHT22;7350;51.208;4.238;2023-02-28T06:58:58;16.00;99.90
14527;DHT22;7350;51.208;4.238;2023-02-28T07:01:25;16.10;99.90
14527;DHT22;7350;51.208;4.238;2023-02-28T07:03:54;16.10;99.90
14527;DHT22;7350;51.208;4.238;2023-02-28T07:06:22;16.00;99.90
14527;DHT22;7350;51.208;4.238;2023-02-28T07:08:49;16.00;99.90
14527;DHT22;7350;51.208;4.238;2023-02-28T07:11:16;16.00;99.90
14527;DHT22;7350;51.208;4.238;2023-02-28T07:13:43;16.00;99.90
14527;DHT22;7350;51.208;4.238;2023-02-28T07:16:11;16.10;99.90
14527;DHT22;7350;51.208;4.238;2023-02-28T07:18:39;16.10;99.90
14527;DHT22;7350;51.208;4.238;2023-02-28T07:21:08;16.10;99.90
14527;DHT22;7350;51.208;4.238;2023-02-28T07:23:35;16.10;99.90
14527;DHT22;7350;51.208;4.238;2023-02-28T07:26:04;16.00;99.90
14527;DHT22;7350;51.208;4.238;2023-02-28T07:28:31;16.00;99.90
14527;DHT22;7350;51.208;4.238;2023-02-28T07:31:03;16.00;99.90
14527;DHT22;7350;51.208;4.238;2023-02-28T07:33:33;16.00;99.90
14527;DHT22;7350;51.208;4.238;2023-02-28T07:36:01;15.90;99.90
14527;DHT22;7350;51.208;4.238;2023-02-28T07:38:28;15.90;99.90
14527;DHT22;7350;51.208;4.238;2023-02-28T07:40:55;15.80;99.90
14527;DHT22;7350;51.208;4.238;2023-02-28T07:43:22;15.90;99.90
14527;DHT22;7350;51.208;4.238;2023-02-28T07:45:49;15.80;99.90
14527;DHT22;7350;51.208;4.238;2023-02-28T07:48:16;15.80;99.90
14527;DHT22;7350;51.208;4.238;2023-02-28T07:50:44;15.80;99.90
14527;DHT22;7350;51.208;4.238;2023-02-28T07:53:13;15.80;99.90
14527;DHT22;7350;51.208;4.238;2023-02-28T07:55:40;15.80;99.90
14527;DHT22;7350;51.208;4.238;2023-02-28T07:58:07;15.70;99.90
14527;DHT22;7350;51.208;4.238;2023-02-28T08:00:34;15.70;99.90
14527;DHT22;7350;51.208;4.238;2023-02-28T08:03:01;15.70;99.90
14527;DHT22;7350;51.208;4.238;2023-02-28T08:05:28;15.70;99.90
14527;DHT22;7350;51.208;4.238;2023-02-28T08:07:58;15.70;99.90
14527;DHT22;7350;51.208;4.238;2023-02-28T08:10:25;15.70;99.90
14527;DHT22;7350;51.208;4.238;2023-02-28T08:12:52;15.70;99.90
14527;DHT22;7350;51.208;4.238;2023-02-28T08:15:19;15.80;99.90
14527;DHT22;7350;51.208;4.238;2023-02-28T08:17:46;15.80;99.90
14527;DHT22;7350;51.208;4.238;2023-02-28T08:20:13;15.80;99.90
14527;DHT22;7350;51.208;4.238;2023-02-28T08:22:40;15.90;99.90
14527;DHT22;7350;51.208;4.238;2023-02-28T08:25:10;15.90;99.90
14527;DHT22;7350;51.208;4.238;2023-02-28T08:27:37;15.90;99.90
14527;DHT22;7350;51.208;4.238;2023-02-28T08:30:05;15.90;99.90
14527;DHT22;7350;51.208;4.238;2023-02-28T08:32:32;15.90;99.90
14527;DHT22;7350;51.208;4.238;2023-02-28T08:34:59;15.90;99.90
14527;DHT22;7350;51.208;4.238;2023-02-28T08:37:28;15.90;99.90
14527;DHT22;7350;51.208;4.238;2023-02-28T08:39:55;15.90;99.90
14527;DHT22;7350;51.208;4.238;2023-02-28T08:42:24;16.00;99.90
14527;DHT22;7350;51.208;4.238;2023-02-28T08:44:51;16.00;99.90
14527;DHT22;7350;51.208;4.238;2023-02-28T08:47:18;16.00;99.90
14527;DHT22;7350;51.208;4.238;2023-02-28T08:49:45;16.00;99.90
14527;DHT22;7350;51.208;4.238;2023-02-28T08:52:12;16.00;99.90
14527;DHT22;7350;51.208;4.238;2023-02-28T08:54:39;16.10;99.90
14527;DHT22;7350;51.208;4.238;2023-02-28T08:57:06;16.00;99.90
14527;DHT22;7350;51.208;4.238;2023-02-28T08:59:34;16.00;99.90
14527;DHT22;7350;51.208;4.238;2023-02-28T09:02:01;16.00;99.90
14527;DHT22;7350;51.208;4.238;2023-02-28T09:04:28;16.00;99.90
14527;DHT22;7350;51.208;4.238;2023-02-28T09:06:56;16.10;99.90
14527;DHT22;7350;51.208;4.238;2023-02-28T09:09:23;16.20;99.90
14527;DHT22;7350;51.208;4.238;2023-02-28T09:11:50;16.20;99.90
14527;DHT22;7350;51.208;4.238;2023-02-28T09:14:17;16.30;99.90
14527;DHT22;7350;51.208;4.238;2023-02-28T09:16:46;16.30;99.90
14527;DHT22;7350;51.208;4.238;2023-02-28T09:19:13;16.30;99.90
14527;DHT22;7350;51.208;4.238;2023-02-28T09:21:40;16.40;99.90
14527;DHT22;7350;51.208;4.238;2023-02-28T09:24:07;16.40;99.90
14527;DHT22;7350;51.208;4.238;2023-02-28T09:26:37;16.50;99.90
14527;DHT22;7350;51.208;4.238;2023-02-28T09:29:04;16.50;99.90
14527;DHT22;7350;51.208;4.238;2023-02-28T09:31:32;16.50;99.90
14527;DHT22;7350;51.208;4.238;2023-02-28T09:34:00;16.50;99.90
14527;DHT22;7350;51.208;4.238;2023-02-28T09:36:27;16.60;99.90
14527;DHT22;7350;51.208;4.238;2023-02-28T09:38:55;16.60;99.90
14527;DHT22;7350;51.208;4.238;2023-02-28T09:41:25;16.70;99.90
14527;DHT22;7350;51.208;4.238;2023-02-28T09:43:56;16.70;99.90
14527;DHT22;7350;51.208;4.238;2023-02-28T09:46:31;16.70;99.90
14527;DHT22;7350;51.208;4.238;2023-02-28T09:49:02;16.70;99.90
14527;DHT22;7350;51.208;4.238;2023-02-28T09:51:39;16.80;99.90
14527;DHT22;7350;51.208;4.238;2023-02-28T09:54:11;16.80;99.90
14527;DHT22;7350;51.208;4.238;2023-02-28T09:56:45;16.80;99.90
14527;DHT22;7350;51.208;4.238;2023-02-28T09:59:24;16.80;99.90
14527;DHT22;7350;51.208;4.238;2023-02-28T10:01:57;16.80;99.90
14527;DHT22;7350;51.208;4.238;2023-02-28T10:04:38;16.80;99.90
14527;DHT22;7350;51.208;4.238;2023-02-28T10:07:21;16.80;99.90
14527;DHT22;7350;51.208;4.238;2023-02-28T10:09:54;16.80;99.90
14527;DHT22;7350;51.208;4.238;2023-02-28T10:12:22;16.90;99.90
14527;DHT22;7350;51.208;4.238;2023-02-28T10:14:54;16.80;99.90
14527;DHT22;7350;51.208;4.238;2023-02-28T10:17:23;16.80;99.90
14527;DHT22;7350;51.208;4.238;2023-02-28T10:19:59;16.80;99.90
14527;DHT22;7350;51.208;4.238;2023-02-28T10:22:37;16.80;99.90
14527;DHT22;7350;51.208;4.238;2023-02-28T10:25:17;16.80;99.90
14527;DHT22;7350;51.208;4.238;2023-02-28T10:27:44;16.80;99.90
14527;DHT22;7350;51.208;4.238;2023-02-28T10:30:12;16.80;99.90
14527;DHT22;7350;51.208;4.238;2023-02-28T10:32:49;16.80;99.90
14527;DHT22;7350;51.208;4.238;2023-02-28T10:35:21;16.80;99.90
14527;DHT22;7350;51.208;4.238;2023-02-28T10:37:51;16.80;99.90
14527;DHT22;7350;51.208;4.238;2023-02-28T10:40:32;16.80;99.90
14527;DHT22;7350;51.208;4.238;2023-02-28T10:43:02;16.80;99.90
14527;DHT22;7350;51.208;4.238;2023-02-28T10:45:31;16.80;99.90
14527;DHT22;7350;51.208;4.238;2023-02-28T10:48:02;16.90;99.90
14527;DHT22;7350;51.208;4.238;2023-02-28T10:50:35;16.90;99.90
14527;DHT22;7350;51.208;4.238;2023-02-28T10:53:14;17.00;99.90
14527;DHT22;7350;51.208;4.238;2023-02-28T10:55:42;17.00;99.90
14527;DHT22;7350;51.208;4.238;2023-02-28T10:58:21;17.00;99.90
14527;DHT22;7350;51.208;4.238;2023-02-28T11:00:49;17.00;99.90
14527;DHT22;7350;51.208;4.238;2023-02-28T11:03:30;17.00;99.90
14527;DHT22;7350;51.208;4.238;2023-02-28T11:06:03;17.00;99.90
14527;DHT22;7350;51.208;4.238;2023-02-28T11:08:30;17.00;99.90
14527;DHT22;7350;51.208;4.238;2023-02-28T11:11:00;17.00;99.90
14527;DHT22;7350;51.208;4.238;2023-02-28T11:13:31;17.00;99.90
14527;DHT22;7350;51.208;4.238;2023-02-28T11:16:02;17.10;99.90
14527;DHT22;7350;51.208;4.238;2023-02-28T11:18:31;16.90;99.90
14527;DHT22;7350;51.208;4.238;2023-02-28T11:21:02;17.00;99.90
14527;DHT22;7350;51.208;4.238;2023-02-28T11:23:32;17.00;99.90
14527;DHT22;7350;51.208;4.238;2023-02-28T11:26:02;17.00;99.90
14527;DHT22;7350;51.208;4.238;2023-02-28T11:28:31;17.00;99.90
14527;DHT22;7350;51.208;4.238;2023-02-28T11:33:55;16.90;99.90
14527;DHT22;7350;51.208;4.238;2023-02-28T11:36:26;17.00;99.90
14527;DHT22;7350;51.208;4.238;2023-02-28T11:38:54;17.00;99.90
14527;DHT22;7350;51.208;4.238;2023-02-28T11:41:32;17.00;99.90
14527;DHT22;7350;51.208;4.238;2023-02-28T11:44:15;17.10;99.90
14527;DHT22;7350;51.208;4.238;2023-02-28T11:46:49;17.10;99.90
14527;DHT22;7350;51.208;4.238;2023-02-28T11:49:27;17.10;99.90
14527;DHT22;7350;51.208;4.238;2023-02-28T11:52:01;17.10;99.90
14527;DHT22;7350;51.208;4.238;2023-02-28T11:54:43;17.10;99.90
14527;DHT22;7350;51.208;4.238;2023-02-28T11:57:30;17.20;99.90
14527;DHT22;7350;51.208;4.238;2023-02-28T12:00:05;17.20;99.90
14527;DHT22;7350;51.208;4.238;2023-02-28T12:02:40;17.20;99.90
14527;DHT22;7350;51.208;4.238;2023-02-28T12:05:23;17.30;99.90
14527;DHT22;7350;51.208;4.238;2023-02-28T12:08:06;17.30;99.90
14527;DHT22;7350;51.208;4.238;2023-02-28T12:10:40;17.30;99.90
14527;DHT22;7350;51.208;4.238;2023-02-28T12:13:18;17.40;99.90
14527;DHT22;7350;51.208;4.238;2023-02-28T12:19:11;17.50;99.90
14527;DHT22;7350;51.208;4.238;2023-02-28T12:21:53;17.50;99.90
14527;DHT22;7350;51.208;4.238;2023-02-28T12:24:38;17.60;99.90
14527;DHT22;7350;51.208;4.238;2023-02-28T12:27:09;17.60;99.90
14527;DHT22;7350;51.208;4.238;2023-02-28T12:29:44;17.60;99.90
14527;DHT22;7350;51.208;4.238;2023-02-28T12:32:15;17.70;99.90
14527;DHT22;7350;51.208;4.238;2023-02-28T12:34:47;17.70;99.90
14527;DHT22;7350;51.208;4.238;2023-02-28T12:37:19;17.70;99.90
14527;DHT22;7350;51.208;4.238;2023-02-28T12:39:54;17.70;99.90
14527;DHT22;7350;51.208;4.238;2023-02-28T12:42:27;17.60;99.90
14527;DHT22;7350;51.208;4.238;2023-02-28T12:44:59;17.60;99.90
14527;DHT22;7350;51.208;4.238;2023-02-28T12:47:27;17.60;99.90
14527;DHT22;7350;51.208;4.238;2023-02-28T12:49:58;17.60;99.90
14527;DHT22;7350;51.208;4.238;2023-02-28T12:52:31;17.60;99.90
14527;DHT22;7350;51.208;4.238;2023-02-28T12:55:06;17.60;99.90
14527;DHT22;7350;51.208;4.238;2023-02-28T12:57:38;17.60;99.90
14527;DHT22;7350;51.208;4.238;2023-02-28T13:00:11;17.60;99.90
14527;DHT22;7350;51.208;4.238;2023-02-28T13:03:08;17.60;99.90
14527;DHT22;7350;51.208;4.238;2023-02-28T13:06:10;17.60;99.90
14527;DHT22;7350;51.208;4.238;2023-02-28T13:09:09;17.60;99.90
14527;DHT22;7350;51.208;4.238;2023-02-28T13:11:42;17.50;99.90
14527;DHT22;7350;51.208;4.238;2023-02-28T13:14:24;17.50;99.90
14527;DHT22;7350;51.208;4.238;2023-02-28T13:16:56;17.60;99.90
14527;DHT22;7350;51.208;4.238;2023-02-28T13:19:25;17.60;99.90
14527;DHT22;7350;51.208;4.238;2023-02-28T13:21:54;17.60;99.90
14527;DHT22;7350;51.208;4.238;2023-02-28T13:24:44;17.50;99.90
14527;DHT22;7350;51.208;4.238;2023-02-28T13:27:34;17.50;99.90
14527;DHT22;7350;51.208;4.238;2023-02-28T13:33:28;17.50;99.90
14527;DHT22;7350;51.208;4.238;2023-02-28T13:36:22;17.50;99.90
14527;DHT22;7350;51.208;4.238;2023-02-28T13:38:50;17.50;99.90
14527;DHT22;7350;51.208;4.238;2023-02-28T13:41:46;17.50;99.90
14527;DHT22;7350;51.208;4.238;2023-02-28T13:44:17;17.50;99.90
14527;DHT22;7350;51.208;4.238;2023-02-28T13:47:22;17.50;99.90
14527;DHT22;7350;51.208;4.238;2023-02-28T13:49:51;17.60;99.90
14527;DHT22;7350;51.208;4.238;2023-02-28T13:52:21;17.60;99.90
14527;DHT22;7350;51.208;4.238;2023-02-28T13:55:01;17.50;99.90
14527;DHT22;7350;51.208;4.238;2023-02-28T13:57:48;17.50;99.90
14527;DHT22;7350;51.208;4.238;2023-02-28T14:00:33;17.60;99.90
14527;DHT22;7350;51.208;4.238;2023-02-28T14:06:21;17.60;99.90
14527;DHT22;7350;51.208;4.238;2023-02-28T14:08:54;17.60;99.90
14527;DHT22;7350;51.208;4.238;2023-02-28T14:11:31;17.50;99.90
14527;DHT22;7350;51.208;4.238;2023-02-28T14:13:58;17.50;99.90
14527;DHT22;7350;51.208;4.238;2023-02-28T14:16:35;17.50;99.90
14527;DHT22;7350;51.208;4.238;2023-02-28T14:19:11;17.50;99.90
14527;DHT22;7350;51.208;4.238;2023-02-28T14:21:47;17.50;99.90
14527;DHT22;7350;51.208;4.238;2023-02-28T14:24:42;17.50;99.90
14527;DHT22;7350;51.208;4.238;2023-02-28T14:27:32;17.50;99.90
14527;DHT22;7350;51.208;4.238;2023-02-28T14:33:25;17.40;99.90
14527;DHT22;7350;51.208;4.238;2023-02-28T14:36:14;17.40;99.90
14527;DHT22;7350;51.208;4.238;2023-02-28T14:38:46;17.40;99.90
14527;DHT22;7350;51.208;4.238;2023-02-28T14:41:21;17.40;99.90
14527;DHT22;7350;51.208;4.238;2023-02-28T14:43:54;17.40;99.90
14527;DHT22;7350;51.208;4.238;2023-02-28T14:46:23;17.40;99.90
14527;DHT22;7350;51.208;4.238;2023-02-28T14:48:52;17.40;99.90
14527;DHT22;7350;51.208;4.238;2023-02-28T14:51:20;17.40;99.90
14527;DHT22;7350;51.208;4.238;2023-02-28T14:53:50;17.30;99.90
14527;DHT22;7350;51.208;4.238;2023-02-28T14:56:27;17.30;99.90
14527;DHT22;7350;51.208;4.238;2023-02-28T14:58:57;17.30;99.90
14527;DHT22;7350;51.208;4.238;2023-02-28T15:01:25;17.30;99.90
14527;DHT22;7350;51.208;4.238;2023-02-28T15:04:05;17.30;99.90
14527;DHT22;7350;51.208;4.238;2023-02-28T15:06:32;17.20;99.90
14527;DHT22;7350;51.208;4.238;2023-02-28T15:09:13;17.20;99.90
14527;DHT22;7350;51.208;4.238;2023-02-28T15:11:41;17.20;99.90
14527;DHT22;7350;51.208;4.238;2023-02-28T15:14:16;17.20;99.90
14527;DHT22;7350;51.208;4.238;2023-02-28T15:16:46;17.10;99.90
14527;DHT22;7350;51.208;4.238;2023-02-28T15:19:20;17.10;99.90
14527;DHT22;7350;51.208;4.238;2023-02-28T15:21:52;17.00;99.90
14527;DHT22;7350;51.208;4.238;2023-02-28T15:24:21;17.00;99.90
14527;DHT22;7350;51.208;4.238;2023-02-28T15:26:54;17.00;99.90
14527;DHT22;7350;51.208;4.238;2023-02-28T15:29:24;17.00;99.90
14527;DHT22;7350;51.208;4.238;2023-02-28T15:31:56;17.00;99.90
14527;DHT22;7350;51.208;4.238;2023-02-28T15:34:29;17.00;99.90
14527;DHT22;7350;51.208;4.238;2023-02-28T15:36:59;16.90;99.90
14527;DHT22;7350;51.208;4.238;2023-02-28T15:39:28;16.90;99.90
14527;DHT22;7350;51.208;4.238;2023-02-28T15:42:10;16.90;99.90
14527;DHT22;7350;51.208;4.238;2023-02-28T15:44:37;16.90;99.90
14527;DHT22;7350;51.208;4.238;2023-02-28T15:47:06;16.90;99.90
14527;DHT22;7350;51.208;4.238;2023-02-28T15:49:39;16.90;99.90
14527;DHT22;7350;51.208;4.238;2023-02-28T15:52:13;16.90;99.90
14527;DHT22;7350;51.208;4.238;2023-02-28T15:54:40;17.00;99.90
14527;DHT22;7350;51.208;4.238;2023-02-28T15:57:14;17.00;99.90
14527;DHT22;7350;51.208;4.238;2023-02-28T15:59:49;17.10;99.90
14527;DHT22;7350;51.208;4.238;2023-02-28T16:02:19;17.20;99.90
14527;DHT22;7350;51.208;4.238;2023-02-28T16:05:12;17.30;99.90
14527;DHT22;7350;51.208;4.238;2023-02-28T16:07:44;17.40;99.90
14527;DHT22;7350;51.208;4.238;2023-02-28T16:10:12;17.40;99.90
14527;DHT22;7350;51.208;4.238;2023-02-28T16:12:41;17.50;99.90
14527;DHT22;7350;51.208;4.238;2023-02-28T16:15:17;17.50;99.90
14527;DHT22;7350;51.208;4.238;2023-02-28T16:17:45;17.60;99.90
14527;DHT22;7350;51.208;4.238;2023-02-28T16:20:15;17.70;99.90
14527;DHT22;7350;51.208;4.238;2023-02-28T16:22:43;17.70;99.90
14527;DHT22;7350;51.208;4.238;2023-02-28T16:25:12;17.80;99.90
14527;DHT22;7350;51.208;4.238;2023-02-28T16:27:40;17.80;99.90
14527;DHT22;7350;51.208;4.238;2023-02-28T16:30:13;17.80;99.90